LTCO

Details ICAO LTCO (AJI)
Name AGRI
Region Turkey
Timezone Europe/Istanbul (UTC+3.0)
Plans Departing 12
Arriving 24
Stats Elevation 5,462 ft / 1,665 m (AMSL)
Location 39.654570° 43.027151°
Runways 1
Magnetic Variation 6.097° E
Sunrise 2018-05-26 01:46:52 UTC / 2018-05-26 04:46:52 Local
Sunset 2018-05-26 16:25:51 UTC / 2018-05-26 19:25:51 Local
Advertisement - Login to hide

Runways

ID Width Length Bearing (true) Bearing (mag) Surface Threshold Offset Overrun Length
16 98 ft / 30 m 6,561 ft / 2,000 m 164.76° 158.66° Asphalt 0 ft / 0 m 225 ft / 69 m
34 98 ft / 30 m 6,561 ft / 2,000 m 344.77° 338.67° Asphalt 0 ft / 0 m 195 ft / 59 m

Map

Weather


0- 5 10 15 20 25 30 35+ Temperature / ° C

Clouds and Precipitation
Forecast for 2018-05-26 12:00 UTC. Updated 3 hours ago

Ground ~20,000 ft ~40,000 ft Winds

METAR

LTCO 261350Z 22010KT 9999 FEW030TCU SCT035 20/10 Q1018

TAF

Not found

Frequencies

Tower 118.47 MHz TWR
Warning: Do not use this data for real-world aviation or navigation. No guarantee of current accuracy is given.